Time;durP1;ratioP1;P1;durP2;ratioP2;P2;SDS_P1;SDS_P2;PMS_P1;PMS_P2;Temp;Humidity;BMP_temperature;BMP_pressure;BME280_temperature;BME280_humidity;BME280_pressure;Samples;Min_cycle;Max_cycle;Signal;HPM_P1;HPM_P2
2023/03/04 00:01:01;;;;;;;15.65;9.10;;;;;;;0.94;100.00;101553.88;5051736;28;20050;-72
2023/03/04 00:03:26;;;;;;;12.77;8.60;;;;;;;0.89;100.00;101550.91;5066726;28;20024;-73
2023/03/04 00:05:52;;;;;;;16.20;9.15;;;;;;;0.86;100.00;101554.06;5080948;28;20032;-72
2023/03/04 00:08:17;;;;;;;16.80;8.73;;;;;;;0.76;100.00;101551.72;5062067;28;20498;-73
2023/03/04 00:10:43;;;;;;;16.98;8.75;;;;;;;0.75;100.00;101560.13;5077400;28;20036;-73
2023/03/04 00:13:08;;;;;;;16.50;9.52;;;;;;;0.69;100.00;101555.47;5082577;28;20031;-72
2023/03/04 00:15:34;;;;;;;17.17;9.35;;;;;;;0.70;100.00;101555.28;5088642;28;20085;-73
2023/03/04 00:17:59;;;;;;;17.65;9.73;;;;;;;0.69;100.00;101555.47;5082289;28;20040;-72
2023/03/04 00:20:25;;;;;;;16.23;9.70;;;;;;;0.62;100.00;101553.56;5080789;28;20461;-72
2023/03/04 00:22:50;;;;;;;14.48;9.38;;;;;;;0.64;100.00;101554.22;5067659;28;20031;-73
2023/03/04 00:25:16;;;;;;;16.00;9.43;;;;;;;0.58;100.00;101555.00;5080776;28;20039;-72
2023/03/04 00:27:41;;;;;;;18.83;11.57;;;;;;;0.50;100.00;101554.31;5063990;28;20108;-72
2023/03/04 00:30:07;;;;;;;15.18;9.80;;;;;;;0.45;100.00;101549.47;5080302;28;20031;-72
2023/03/04 00:32:33;;;;;;;19.42;10.20;;;;;;;0.47;100.00;101549.25;5066736;28;20035;-72
2023/03/04 00:34:58;;;;;;;16.77;10.20;;;;;;;0.44;100.00;101553.22;5083992;28;20035;-73
2023/03/04 00:37:24;;;;;;;16.25;10.07;;;;;;;0.42;100.00;101552.63;5084187;28;20425;-73
2023/03/04 00:39:49;;;;;;;17.88;9.80;;;;;;;0.44;100.00;101561.44;5072550;28;20028;-72
2023/03/04 00:42:15;;;;;;;20.27;9.48;;;;;;;0.38;100.00;101565.81;5053985;27;20054;-72
2023/03/04 00:44:40;;;;;;;16.98;9.50;;;;;;;0.36;100.00;101567.06;5098000;28;20042;-72
2023/03/04 00:47:05;;;;;;;17.60;9.90;;;;;;;0.36;100.00;101567.94;5108904;28;20047;-72
2023/03/04 00:49:31;;;;;;;18.75;10.38;;;;;;;0.33;100.00;101565.56;5066796;28;20035;-72
2023/03/04 00:51:56;;;;;;;15.95;9.98;;;;;;;0.27;100.00;101568.28;5079530;27;20394;-72
2023/03/04 00:54:22;;;;;;;15.27;9.55;;;;;;;0.30;100.00;101567.88;5100210;28;20446;-72
2023/03/04 00:56:47;;;;;;;16.70;8.98;;;;;;;0.25;100.00;101571.19;5096321;27;20023;-72
2023/03/04 00:59:13;;;;;;;15.40;9.20;;;;;;;0.20;100.00;101568.25;5103870;27;20031;-72
2023/03/04 01:01:38;;;;;;;16.42;9.32;;;;;;;0.20;100.00;101574.53;5100289;28;20044;-72
2023/03/04 01:04:04;;;;;;;17.80;9.30;;;;;;;0.18;100.00;101573.06;5099086;28;20031;-72
2023/03/04 01:06:29;;;;;;;17.23;9.27;;;;;;;0.15;100.00;101571.56;5103837;27;20027;-72
2023/03/04 01:08:54;;;;;;;15.75;10.35;;;;;;;0.13;100.00;101570.06;5120451;27;20030;-72
2023/03/04 01:11:20;;;;;;;16.70;10.38;;;;;;;0.14;100.00;101574.47;5120759;27;20030;-72
2023/03/04 01:13:45;;;;;;;17.38;10.07;;;;;;;0.13;100.00;101572.81;5085576;27;20022;-72
2023/03/04 01:16:11;;;;;;;17.63;9.95;;;;;;;0.09;100.00;101577.81;5086701;27;20015;-72
2023/03/04 01:18:37;;;;;;;14.85;9.43;;;;;;;0.03;100.00;101581.34;5086586;27;20038;-72
2023/03/04 01:21:02;;;;;;;17.23;10.02;;;;;;;-0.01;100.00;101577.31;5103369;27;20058;-72
2023/03/04 01:23:28;;;;;;;15.55;10.07;;;;;;;-0.02;100.00;101576.47;5103486;27;20391;-72
2023/03/04 01:25:53;;;;;;;16.08;9.30;;;;;;;0.02;100.00;101576.91;5120345;27;20027;-72
2023/03/04 01:28:19;;;;;;;18.08;10.40;;;;;;;-0.09;100.00;101569.28;5086151;27;20091;-72
2023/03/04 01:30:44;;;;;;;17.35;10.35;;;;;;;-0.06;100.00;101564.25;5085202;27;20028;-72
2023/03/04 01:33:10;;;;;;;20.15;10.88;;;;;;;-0.08;100.00;101570.97;5120052;27;20035;-72
2023/03/04 01:35:35;;;;;;;15.25;9.60;;;;;;;-0.10;100.00;101567.59;5103354;27;20027;-73
2023/03/04 01:38:01;;;;;;;15.63;10.00;;;;;;;-0.15;100.00;101567.34;5103120;27;20019;-72
2023/03/04 01:40:26;;;;;;;18.80;10.50;;;;;;;-0.20;100.00;101561.63;5102971;27;20041;-72
2023/03/04 01:42:51;;;;;;;18.45;10.82;;;;;;;-0.22;100.00;101567.28;5120012;27;20096;-72
2023/03/04 01:45:17;;;;;;;18.05;10.93;;;;;;;-0.23;100.00;101558.22;5085879;27;20051;-72
2023/03/04 01:47:47;;;;;;;18.05;11.07;;;;;;;-0.20;100.00;101558.88;5064524;28;20111;-72
2023/03/04 01:50:23;;;;;;;17.55;10.82;;;;;;;-0.29;100.00;101556.28;5070852;28;20043;-72
2023/03/04 01:52:48;;;;;;;19.48;11.93;;;;;;;-0.31;100.00;101554.78;5070097;28;20020;-72
2023/03/04 01:55:20;;;;;;;18.85;10.95;;;;;;;-0.35;100.00;101559.81;5082617;28;20052;-73
2023/03/04 01:57:47;;;;;;;16.77;10.55;;;;;;;-0.31;100.00;101554.78;5062515;28;20074;-72
2023/03/04 02:00:27;;;;;;;20.00;10.35;;;;;;;-0.30;100.00;101546.44;5057830;28;20023;-72
2023/03/04 02:03:00;;;;;;;21.42;12.02;;;;;;;-0.36;100.00;101549.94;5109792;27;20023;-72
2023/03/04 02:05:26;;;;;;;17.48;11.35;;;;;;;-0.35;100.00;101553.53;5072829;27;20031;-72
2023/03/04 02:07:51;;;;;;;18.83;11.32;;;;;;;-0.43;100.00;101551.75;5087962;28;20035;-72
2023/03/04 02:10:17;;;;;;;17.88;11.55;;;;;;;-0.40;100.00;101548.63;5043111;28;20031;-72
2023/03/04 02:12:42;;;;;;;21.45;11.65;;;;;;;-0.48;100.00;101538.69;5078758;28;20107;-72
2023/03/04 02:15:08;;;;;;;18.85;11.32;;;;;;;-0.45;100.00;101542.91;5079112;28;20036;-72
2023/03/04 02:17:34;;;;;;;17.65;11.13;;;;;;;-0.47;100.00;101547.75;5061766;28;20109;-72
2023/03/04 02:20:06;;;;;;;18.35;11.48;;;;;;;-0.51;100.00;101539.09;5085344;28;20161;-72
2023/03/04 02:22:32;;;;;;;19.33;11.95;;;;;;;-0.51;100.00;101544.53;5079509;28;20107;-72
2023/03/04 02:25:04;;;;;;;21.05;11.65;;;;;;;-0.51;100.00;101551.91;5060805;28;20031;-72
2023/03/04 02:27:29;;;;;;;20.92;12.15;;;;;;;-0.50;100.00;101542.69;5069480;28;20031;-72
2023/03/04 02:29:55;;;;;;;19.35;11.65;;;;;;;-0.59;100.00;101550.13;5061732;28;20024;-72
2023/03/04 02:32:20;;;;;;;20.33;12.15;;;;;;;-0.61;100.00;101544.06;5094114;28;20047;-72
2023/03/04 02:34:47;;;;;;;21.13;12.20;;;;;;;-0.65;100.00;101539.16;5061753;28;20032;-72
2023/03/04 02:37:13;;;;;;;22.85;12.05;;;;;;;-0.68;100.00;101541.25;5061665;28;20024;-72
2023/03/04 02:39:39;;;;;;;18.83;11.70;;;;;;;-0.71;100.00;101541.63;5078250;28;20034;-72
2023/03/04 02:42:05;;;;;;;22.33;12.70;;;;;;;-0.70;100.00;101545.19;5064871;28;20038;-72
2023/03/04 02:44:33;;;;;;;25.90;11.65;;;;;;;-0.69;100.00;101536.00;5087203;27;20031;-72
2023/03/04 02:46:59;;;;;;;18.20;11.63;;;;;;;-0.70;100.00;101540.63;5085693;28;20040;-72
2023/03/04 02:49:25;;;;;;;20.48;11.65;;;;;;;-0.72;100.00;101539.94;5086253;27;20673;-72
2023/03/04 02:52:04;;;;;;;20.65;11.50;;;;;;;-0.72;100.00;101542.69;5085512;28;20028;-72
2023/03/04 02:54:30;;;;;;;17.85;12.27;;;;;;;-0.72;100.00;101541.84;5069940;28;20089;-72
2023/03/04 02:57:01;;;;;;;22.30;11.48;;;;;;;-0.73;100.00;101538.25;5077795;27;20015;-72
2023/03/04 02:59:26;;;;;;;17.00;11.38;;;;;;;-0.72;100.00;101539.94;5061281;28;20028;-72
2023/03/04 03:01:52;;;;;;;19.02;11.02;;;;;;;-0.79;100.00;101540.91;5075318;28;20024;-72
2023/03/04 03:04:17;;;;;;;18.77;10.80;;;;;;;-0.81;100.00;101542.97;5089962;27;20031;-72
2023/03/04 03:06:43;;;;;;;18.23;11.70;;;;;;;-0.84;100.00;101536.03;5084363;28;20081;-72
2023/03/04 03:09:08;;;;;;;18.67;11.23;;;;;;;-0.84;100.00;101537.91;5098339;28;20023;-72
2023/03/04 03:11:34;;;;;;;17.17;10.90;;;;;;;-0.86;100.00;101535.41;5067424;28;20024;-72
2023/03/04 03:13:59;;;;;;;22.10;11.13;;;;;;;-0.90;100.00;101536.81;5081847;28;20024;-72
2023/03/04 03:16:25;;;;;;;21.75;12.30;;;;;;;-0.91;100.00;101538.69;5074863;28;20115;-73
2023/03/04 03:18:50;;;;;;;18.52;10.80;;;;;;;-0.94;100.00;101533.63;5091331;27;20060;-72
2023/03/04 03:21:16;;;;;;;20.75;11.85;;;;;;;-0.95;100.00;101531.09;5082472;28;20478;-72
2023/03/04 03:23:42;;;;;;;20.35;12.18;;;;;;;-0.96;100.00;101535.69;5081260;28;20058;-72
2023/03/04 03:26:07;;;;;;;19.50;11.30;;;;;;;-0.97;100.00;101530.47;5098408;27;20034;-72
2023/03/04 03:28:33;;;;;;;21.30;12.50;;;;;;;-1.01;100.00;101531.88;5082120;28;20036;-72
2023/03/04 03:30:58;;;;;;;21.83;12.55;;;;;;;-1.03;100.00;101528.47;5044455;28;20023;-72
2023/03/04 03:33:24;;;;;;;18.33;11.45;;;;;;;-1.04;100.00;101533.09;5108313;27;20035;-72
2023/03/04 03:35:49;;;;;;;18.08;11.88;;;;;;;-1.06;100.00;101534.31;5071546;28;20093;-72
2023/03/04 03:38:14;;;;;;;21.25;12.30;;;;;;;-1.10;100.00;101533.03;5065671;28;20032;-72
2023/03/04 03:40:40;;;;;;;17.50;12.20;;;;;;;-1.15;100.00;101534.44;5085051;28;20541;-72
2023/03/04 03:43:05;;;;;;;21.85;12.32;;;;;;;-1.16;100.00;101530.03;5065211;28;20043;-72
2023/03/04 03:45:31;;;;;;;24.50;12.15;;;;;;;-1.18;100.00;101526.66;5043726;28;20408;-72
2023/03/04 03:47:58;;;;;;;19.25;12.52;;;;;;;-1.21;100.00;101529.75;5063794;28;20048;-72
2023/03/04 03:50:23;;;;;;;22.30;13.18;;;;;;;-1.17;100.00;101531.06;5057516;28;20042;-72
2023/03/04 03:52:49;;;;;;;24.02;13.30;;;;;;;-1.25;100.00;101525.75;5080199;28;20031;-72
2023/03/04 03:55:14;;;;;;;23.17;13.15;;;;;;;-1.24;100.00;101521.13;5080454;28;20047;-72
2023/03/04 03:57:39;;;;;;;21.77;12.50;;;;;;;-1.25;100.00;101531.19;5097636;28;20020;-72
2023/03/04 04:00:06;;;;;;;20.08;13.32;;;;;;;-1.26;100.00;101521.31;5080368;28;20093;-72
2023/03/04 04:02:31;;;;;;;26.15;14.55;;;;;;;-1.30;100.00;101533.63;5059976;28;20067;-72
2023/03/04 04:04:57;;;;;;;27.90;14.15;;;;;;;-1.29;100.00;101529.03;5080194;28;20019;-72
2023/03/04 04:07:22;;;;;;;23.23;13.73;;;;;;;-1.27;100.00;101537.88;5077144;28;20039;-72
2023/03/04 04:09:48;;;;;;;22.33;13.73;;;;;;;-1.28;100.00;101537.03;5091324;28;20036;-72
2023/03/04 04:12:14;;;;;;;25.30;13.85;;;;;;;-1.33;100.00;101535.91;5073284;28;20031;-72
2023/03/04 04:14:40;;;;;;;24.33;13.77;;;;;;;-1.32;100.00;101537.59;5080006;28;20023;-72
2023/03/04 04:17:05;;;;;;;23.45;13.52;;;;;;;-1.36;100.00;101528.97;5079874;28;20035;-72
2023/03/04 04:19:30;;;;;;;22.85;13.10;;;;;;;-1.35;100.00;101527.91;5074229;28;20054;-72
2023/03/04 04:21:56;;;;;;;21.92;13.30;;;;;;;-1.37;100.00;101528.09;5111908;28;20035;-72
2023/03/04 04:24:21;;;;;;;28.52;14.20;;;;;;;-1.38;100.00;101531.00;5097072;28;20042;-72
2023/03/04 04:26:47;;;;;;;26.48;13.75;;;;;;;-1.41;100.00;101528.69;5080161;28;20084;-72
2023/03/04 04:29:13;;;;;;;25.58;14.73;;;;;;;-1.40;100.00;101528.47;5080138;28;20060;-72
2023/03/04 04:31:38;;;;;;;26.25;14.77;;;;;;;-1.42;100.00;101529.69;5079986;28;20063;-72
2023/03/04 04:34:04;;;;;;;23.90;14.05;;;;;;;-1.47;100.00;101534.91;5059698;28;20028;-72
2023/03/04 04:36:29;;;;;;;28.85;14.18;;;;;;;-1.49;100.00;101539.69;5091513;28;20039;-72
2023/03/04 04:38:56;;;;;;;27.05;15.65;;;;;;;-1.50;100.00;101538.84;5093473;28;20032;-72
2023/03/04 04:41:24;;;;;;;28.35;14.90;;;;;;;-1.48;100.00;101541.34;5078540;28;20020;-72
2023/03/04 04:43:49;;;;;;;26.25;15.10;;;;;;;-1.49;100.00;101536.97;5059781;28;20070;-72
2023/03/04 04:46:15;;;;;;;27.13;14.98;;;;;;;-1.53;100.00;101539.22;5079669;28;20056;-72
2023/03/04 04:48:40;;;;;;;26.15;14.25;;;;;;;-1.52;100.00;101540.06;5080287;28;20043;-72
2023/03/04 04:51:06;;;;;;;22.75;13.90;;;;;;;-1.53;100.00;101541.06;5083714;28;20058;-72
2023/03/04 04:53:31;;;;;;;24.67;13.55;;;;;;;-1.53;100.00;101544.66;5083715;28;20027;-72
2023/03/04 04:55:57;;;;;;;25.70;13.65;;;;;;;-1.58;100.00;101533.50;5083300;28;20027;-72
2023/03/04 04:58:22;;;;;;;25.23;13.48;;;;;;;-1.57;100.00;101544.19;5072082;28;20028;-72
2023/03/04 05:00:48;;;;;;;24.20;13.77;;;;;;;-1.57;100.00;101543.34;5078945;28;20036;-72
2023/03/04 05:03:13;;;;;;;22.95;13.50;;;;;;;-1.60;100.00;101549.16;5083397;28;20450;-72
2023/03/04 05:05:38;;;;;;;24.65;13.93;;;;;;;-1.61;100.00;101552.94;5083399;28;20027;-72
2023/03/04 05:08:04;;;;;;;24.88;13.50;;;;;;;-1.63;100.00;101549.56;5050245;28;20096;-72
2023/03/04 05:10:30;;;;;;;25.17;13.65;;;;;;;-1.68;100.00;101555.56;5066498;28;20020;-72
2023/03/04 05:12:55;;;;;;;27.33;14.93;;;;;;;-1.72;100.00;101553.41;5099670;28;20023;-72
2023/03/04 05:15:20;;;;;;;27.00;15.00;;;;;;;-1.71;100.00;101558.66;5066870;28;20024;-72
2023/03/04 05:17:46;;;;;;;29.45;14.82;;;;;;;-1.75;100.00;101554.63;5073767;28;20388;-72
2023/03/04 05:20:12;;;;;;;28.92;16.45;;;;;;;-1.76;100.00;101560.25;5096609;28;20028;-72
2023/03/04 05:22:37;;;;;;;32.83;17.88;;;;;;;-1.76;100.00;101562.97;5071767;28;20024;-72
2023/03/04 05:25:03;;;;;;;33.75;18.02;;;;;;;-1.77;100.00;101573.03;5066581;28;20067;-72
2023/03/04 05:27:28;;;;;;;29.77;17.35;;;;;;;-1.75;100.00;101567.41;5070577;28;20494;-72
2023/03/04 05:29:54;;;;;;;27.67;16.13;;;;;;;-1.77;100.00;101564.84;5044046;28;20028;-72
2023/03/04 05:32:20;;;;;;;28.20;15.18;;;;;;;-1.78;100.00;101573.19;5076191;28;20388;-72
2023/03/04 05:34:45;;;;;;;28.33;15.98;;;;;;;-1.82;100.00;101570.00;5077802;28;20043;-72
2023/03/04 05:37:11;;;;;;;30.85;15.73;;;;;;;-1.82;100.00;101567.28;5066164;28;20042;-72
2023/03/04 05:39:36;;;;;;;28.10;16.30;;;;;;;-1.84;100.00;101564.78;5082845;28;20050;-72
2023/03/04 05:42:02;;;;;;;26.80;15.13;;;;;;;-1.89;100.00;101566.34;5060614;27;20060;-72
2023/03/04 05:44:27;;;;;;;29.17;16.13;;;;;;;-1.86;100.00;101576.88;5064840;28;20054;-72
2023/03/04 05:46:53;;;;;;;28.77;16.13;;;;;;;-1.85;100.00;101578.56;5104691;28;20051;-72
2023/03/04 05:49:18;;;;;;;28.98;16.48;;;;;;;-1.88;100.00;101573.47;5117849;27;20387;-72
2023/03/04 05:51:44;;;;;;;33.10;17.50;;;;;;;-1.86;100.00;101571.44;5120135;27;20035;-72
2023/03/04 05:54:09;;;;;;;31.63;16.98;;;;;;;-1.91;100.00;101571.97;5085958;27;20498;-72
2023/03/04 05:56:35;;;;;;;30.60;16.15;;;;;;;-1.93;100.00;101578.63;5099467;28;20077;-72
2023/03/04 05:59:00;;;;;;;26.05;16.05;;;;;;;-1.91;100.00;101569.25;5066072;28;20023;-72
2023/03/04 06:01:26;;;;;;;27.48;15.85;;;;;;;-1.95;100.00;101577.97;5094068;27;20027;-72
2023/03/04 06:03:51;;;;;;;27.02;15.77;;;;;;;-1.92;100.00;101577.59;5119237;27;20023;-72
2023/03/04 06:06:17;;;;;;;28.70;15.60;;;;;;;-1.94;100.00;101582.41;5099077;28;20030;-72
2023/03/04 06:08:42;;;;;;;29.95;16.23;;;;;;;-1.97;100.00;101585.50;5068638;27;20494;-72
2023/03/04 06:11:08;;;;;;;29.30;15.60;;;;;;;-1.98;100.00;101584.63;5119436;27;20593;-72
2023/03/04 06:13:33;;;;;;;29.92;16.85;;;;;;;-2.03;100.00;101587.09;5083501;27;20046;-72
2023/03/04 06:15:59;;;;;;;29.30;15.75;;;;;;;-2.05;100.00;101591.88;5071350;28;20032;-72
2023/03/04 06:18:25;;;;;;;29.23;16.55;;;;;;;-2.09;100.00;101585.94;5085123;27;20023;-72
2023/03/04 06:20:50;;;;;;;28.33;16.08;;;;;;;-2.07;100.00;101594.75;5083844;27;20031;-72
2023/03/04 06:23:15;;;;;;;27.85;15.70;;;;;;;-2.08;100.00;101603.13;5119136;27;20027;-72
2023/03/04 06:25:42;;;;;;;30.65;16.77;;;;;;;-2.12;100.00;101599.91;5085782;27;20391;-72
2023/03/04 06:28:07;;;;;;;29.17;16.42;;;;;;;-2.15;100.00;101605.72;5102067;27;20027;-72
2023/03/04 06:30:33;;;;;;;30.05;16.58;;;;;;;-2.16;100.00;101612.19;5099536;28;20031;-72
2023/03/04 06:32:58;;;;;;;32.42;17.58;;;;;;;-2.17;100.00;101610.53;5101830;27;20031;-72
2023/03/04 06:35:23;;;;;;;31.90;17.05;;;;;;;-2.16;100.00;101620.38;5085061;27;20644;-72
2023/03/04 06:37:49;;;;;;;29.73;17.38;;;;;;;-2.19;100.00;101628.91;5102054;27;20038;-72
2023/03/04 06:40:14;;;;;;;32.58;17.65;;;;;;;-2.22;100.00;101626.53;5068586;27;20031;-72
2023/03/04 06:42:40;;;;;;;31.42;17.48;;;;;;;-2.21;100.00;101628.22;5101406;27;20490;-72
2023/03/04 06:45:06;;;;;;;29.60;16.05;;;;;;;-2.21;100.00;101632.81;5101755;27;20415;-72
2023/03/04 06:47:32;;;;;;;33.20;17.00;;;;;;;-2.26;100.00;101636.09;5064639;28;20038;-72
2023/03/04 06:49:57;;;;;;;34.28;18.98;;;;;;;-2.27;100.00;101634.41;5061455;28;20095;-72
2023/03/04 06:52:23;;;;;;;31.30;17.95;;;;;;;-2.29;100.00;101640.00;5064392;28;20031;-72
2023/03/04 06:54:48;;;;;;;34.60;18.58;;;;;;;-2.30;100.00;101634.78;5068341;28;20059;-72
2023/03/04 06:57:14;;;;;;;34.05;18.20;;;;;;;-2.31;100.00;101633.94;5111933;27;20039;-72
2023/03/04 06:59:39;;;;;;;39.20;20.42;;;;;;;-2.28;100.00;101633.56;5084812;27;20031;-72
2023/03/04 07:02:05;;;;;;;33.55;19.83;;;;;;;-2.25;100.00;101632.34;5101161;27;20038;-72
2023/03/04 07:04:31;;;;;;;35.67;19.58;;;;;;;-2.26;100.00;101638.81;5078320;28;20036;-72
2023/03/04 07:06:56;;;;;;;37.95;20.52;;;;;;;-2.28;100.00;101649.06;5081421;27;20011;-72
2023/03/04 07:09:21;;;;;;;33.15;19.15;;;;;;;-2.30;100.00;101640.22;5091057;28;20024;-72
2023/03/04 07:11:47;;;;;;;35.33;19.85;;;;;;;-2.25;100.00;101649.53;5053201;28;20024;-72
2023/03/04 07:14:12;;;;;;;36.78;19.70;;;;;;;-2.19;100.00;101641.66;5082745;28;20103;-72
2023/03/04 07:16:38;;;;;;;32.65;18.02;;;;;;;-2.17;100.00;101647.75;5073998;28;20024;-72
2023/03/04 07:19:03;;;;;;;32.65;18.35;;;;;;;-2.16;100.00;101646.75;5077563;28;20625;-72
2023/03/04 07:21:29;;;;;;;33.08;19.30;;;;;;;-2.14;100.00;101658.31;5079242;28;20031;-72
2023/03/04 07:23:55;;;;;;;37.25;19.15;;;;;;;-2.09;100.00;101655.84;5065652;28;20024;-72
2023/03/04 07:26:20;;;;;;;32.25;18.27;;;;;;;-2.02;100.00;101663.13;5062850;28;20024;-72
2023/03/04 07:28:46;;;;;;;34.53;18.90;;;;;;;-1.98;100.00;101662.75;5077412;28;20032;-72
2023/03/04 07:31:23;;;;;;;34.25;18.17;;;;;;;-1.91;100.00;101664.56;5080512;28;20027;-72
2023/03/04 07:33:49;;;;;;;33.08;18.00;;;;;;;-1.79;100.00;101664.97;5077017;28;20028;-72
2023/03/04 07:36:14;;;;;;;32.95;16.70;;;;;;;-1.70;100.00;101668.44;5074148;28;20062;-72
2023/03/04 07:38:46;;;;;;;32.10;17.90;;;;;;;-1.60;100.00;101669.88;5054366;28;20031;-72
2023/03/04 07:41:12;;;;;;;35.17;18.05;;;;;;;-1.49;100.00;101670.47;5064623;28;20020;-72
2023/03/04 07:43:37;;;;;;;30.70;17.85;;;;;;;-1.37;100.00;101671.69;5051750;28;20442;-72
2023/03/04 07:46:03;;;;;;;32.10;18.10;;;;;;;-1.26;100.00;101673.94;5058936;28;20056;-72
2023/03/04 07:48:28;;;;;;;33.67;18.75;;;;;;;-1.13;100.00;101676.88;5071856;28;20034;-72
2023/03/04 07:51:08;;;;;;;29.27;17.20;;;;;;;-0.99;100.00;101674.31;5097427;28;20459;-72
2023/03/04 07:53:34;;;;;;;32.80;17.10;;;;;;;-0.86;100.00;101674.50;5067091;28;20028;-73
2023/03/04 07:55:59;;;;;;;32.55;17.48;;;;;;;-0.73;100.00;101665.63;5067393;28;20380;-73
2023/03/04 07:58:25;;;;;;;32.55;17.83;;;;;;;-0.59;100.00;101667.47;5080384;28;20472;-72
2023/03/04 08:00:50;;;;;;;33.22;17.73;;;;;;;-0.47;100.00;101667.84;5062577;28;20081;-73
2023/03/04 08:03:16;;;;;;;33.65;19.15;;;;;;;-0.35;100.00;101669.00;5063477;28;20031;-72
2023/03/04 08:05:41;;;;;;;29.83;17.88;;;;;;;-0.20;100.00;101671.66;5063756;28;20683;-72
2023/03/04 08:08:07;;;;;;;38.75;21.35;;;;;;;-0.12;100.00;101674.28;5097182;28;20024;-72
2023/03/04 08:10:32;;;;;;;34.75;20.05;;;;;;;-0.02;100.00;101679.44;5110192;28;20052;-73
2023/03/04 08:12:58;;;;;;;39.92;21.48;;;;;;;0.06;100.00;101676.56;5076938;28;20040;-73
2023/03/04 08:15:26;;;;;;;40.40;21.08;;;;;;;0.17;100.00;101681.50;5080246;28;20499;-73
2023/03/04 08:17:51;;;;;;;35.85;21.05;;;;;;;0.29;100.00;101683.69;5097079;28;20069;-72
2023/03/04 08:20:17;;;;;;;37.75;22.27;;;;;;;0.42;100.00;101686.53;5061185;28;20477;-72
2023/03/04 08:22:42;;;;;;;44.42;23.65;;;;;;;0.53;100.00;101690.59;5082711;27;20065;-73
2023/03/04 08:25:08;;;;;;;39.92;21.95;;;;;;;0.62;100.00;101695.72;5085738;28;20031;-73
2023/03/04 08:27:33;;;;;;;42.92;24.08;;;;;;;0.72;100.00;101699.97;5080672;28;20028;-73
2023/03/04 08:29:59;;;;;;;41.33;21.17;;;;;;;0.87;100.00;101703.47;5079536;28;20496;-73
2023/03/04 08:32:24;;;;;;;39.53;21.73;;;;;;;0.99;100.00;101709.22;5079434;28;20031;-72
2023/03/04 08:34:50;;;;;;;40.25;23.38;;;;;;;1.08;100.00;101711.56;5084128;28;20027;-72
2023/03/04 08:37:15;;;;;;;43.05;23.05;;;;;;;1.20;100.00;101703.66;5100786;28;20490;-73
2023/03/04 08:39:41;;;;;;;38.08;21.98;;;;;;;1.34;100.00;101704.56;5083742;28;20024;-73
2023/03/04 08:42:06;;;;;;;44.55;23.55;;;;;;;1.39;100.00;101699.28;5078113;27;20108;-73
2023/03/04 08:44:32;;;;;;;39.90;22.00;;;;;;;1.52;100.00;101693.88;5068461;28;20031;-73
2023/03/04 08:46:57;;;;;;;36.13;20.70;;;;;;;1.67;100.00;101695.59;5070967;28;20040;-73
2023/03/04 08:49:23;;;;;;;37.20;22.02;;;;;;;1.76;100.00;101695.22;5099358;28;20028;-73
2023/03/04 08:51:48;;;;;;;41.50;21.80;;;;;;;1.90;100.00;101685.16;5100627;28;20035;-73
2023/03/04 08:54:13;;;;;;;38.90;22.65;;;;;;;2.00;100.00;101688.31;5046801;28;20457;-73
2023/03/04 08:56:40;;;;;;;37.63;21.98;;;;;;;2.14;100.00;101680.94;5075315;28;20035;-71
2023/03/04 08:59:05;;;;;;;39.40;21.17;;;;;;;2.30;100.00;101682.44;5062873;28;20031;-76
2023/03/04 09:01:31;;;;;;;40.63;20.98;;;;;;;2.45;100.00;101684.94;5064607;28;20028;-69
2023/03/04 09:03:56;;;;;;;28.30;16.88;;;;;;;2.62;100.00;101696.34;5120623;28;20027;-74
2023/03/04 09:06:22;;;;;;;35.38;17.98;;;;;;;2.68;100.00;101698.25;5083833;28;20067;-76
2023/03/04 09:08:56;;;;;;;32.30;16.77;;;;;;;2.79;100.00;101697.59;5070523;28;20030;-79
2023/03/04 09:11:22;;;;;;;31.08;16.15;;;;;;;2.92;100.00;101693.97;5064633;28;20020;-76
2023/03/04 09:13:49;;;;;;;31.83;17.15;;;;;;;3.04;100.00;101691.44;5066202;28;20028;-76
2023/03/04 09:16:15;;;;;;;27.98;16.20;;;;;;;3.18;100.00;101698.56;5095251;28;20031;-76
2023/03/04 09:18:40;;;;;;;34.28;17.52;;;;;;;3.30;100.00;101694.06;5079804;28;20479;-76
2023/03/04 09:21:07;;;;;;;29.42;16.00;;;;;;;3.38;100.00;101687.50;5087075;28;20027;-76
2023/03/04 09:23:32;;;;;;;24.67;14.45;;;;;;;3.53;100.00;101698.19;5083331;28;20024;-76
2023/03/04 09:25:58;;;;;;;29.67;14.57;;;;;;;3.64;100.00;101691.19;5078702;28;20035;-76
2023/03/04 09:28:23;;;;;;;25.73;13.30;;;;;;;3.64;100.00;101691.19;5086751;28;20019;-76
2023/03/04 09:30:49;;;;;;;26.63;15.32;;;;;;;3.72;100.00;101680.78;5100390;28;20032;-70
2023/03/04 09:33:14;;;;;;;26.20;14.20;;;;;;;3.83;100.00;101686.66;5100124;28;20039;-79
2023/03/04 09:35:40;;;;;;;24.23;13.73;;;;;;;3.97;100.00;101691.00;5082659;28;20541;-78
2023/03/04 09:38:05;;;;;;;21.77;12.32;;;;;;;4.11;100.00;101687.09;5066333;28;20089;-78
2023/03/04 09:40:40;;;;;;;25.88;12.70;;;;;;;4.14;100.00;101683.06;5099963;28;20054;-78
2023/03/04 09:43:06;;;;;;;21.83;12.85;;;;;;;4.27;100.00;101687.63;5069127;28;20404;-78
2023/03/04 09:45:44;;;;;;;23.58;12.00;;;;;;;4.42;100.00;101683.44;5092667;28;20052;-78
2023/03/04 09:48:12;;;;;;;23.67;13.30;;;;;;;4.53;100.00;101673.63;5062256;28;20032;-78
2023/03/04 09:50:39;;;;;;;19.73;12.68;;;;;;;4.64;100.00;101678.38;5083274;28;20032;-78
2023/03/04 09:53:25;;;;;;;24.00;12.65;;;;;;;4.77;100.00;101682.09;5079990;28;20070;-78
2023/03/04 09:55:50;;;;;;;25.00;11.85;;;;;;;4.92;100.00;101677.91;5064777;28;20036;-79
2023/03/04 09:58:46;;;;;;;26.13;13.57;;;;;;;4.82;100.00;101680.34;5057307;28;20085;-79
2023/03/04 10:01:34;;;;;;;23.13;12.27;;;;;;;4.82;100.00;101677.59;5051638;28;20542;-78
2023/03/04 10:04:13;;;;;;;27.15;12.48;;;;;;;4.93;100.00;101682.34;5098870;28;20392;-73
2023/03/04 10:06:38;;;;;;;20.05;11.82;;;;;;;5.09;100.00;101675.38;5099270;28;20043;-73
2023/03/04 10:09:25;;;;;;;30.25;13.18;;;;;;;5.13;100.00;101681.28;5078987;28;20036;-72
2023/03/04 10:12:02;;;;;;;28.35;13.50;;;;;;;5.13;100.00;101690.38;5098316;28;20530;-69
2023/03/04 10:14:37;;;;;;;22.45;12.63;;;;;;;5.18;100.00;101694.34;5065193;28;20059;-66
2023/03/04 10:17:11;;;;;;;29.05;13.75;;;;;;;5.19;100.00;101694.13;5082092;28;20028;-67
2023/03/04 10:19:56;;;;;;;27.83;13.52;;;;;;;5.21;100.00;101700.25;5061293;28;20035;-67
2023/03/04 10:22:32;;;;;;;25.02;12.80;;;;;;;5.30;100.00;101700.81;5077069;28;20024;-66
2023/03/04 10:24:58;;;;;;;28.23;12.90;;;;;;;5.40;100.00;101694.72;5078529;28;20035;-66
2023/03/04 10:27:24;;;;;;;25.02;11.90;;;;;;;5.50;100.00;101686.78;5061908;28;20119;-66
2023/03/04 10:29:49;;;;;;;26.58;10.68;;;;;;;5.67;100.00;101695.25;5075185;28;20032;-67
2023/03/04 10:32:16;;;;;;;18.00;8.65;;;;;;;5.85;100.00;101695.22;5061819;28;20118;-66
2023/03/04 10:34:42;;;;;;;20.30;7.97;;;;;;;6.00;100.00;101684.63;5078105;28;20027;-66
2023/03/04 10:37:08;;;;;;;18.25;7.43;;;;;;;6.16;100.00;101679.50;5079444;28;20051;-67
2023/03/04 10:39:40;;;;;;;17.63;7.80;;;;;;;6.28;100.00;101680.38;5111686;28;20038;-66
2023/03/04 10:42:15;;;;;;;18.33;9.35;;;;;;;6.29;100.00;101682.03;5078877;28;20036;-67
2023/03/04 10:44:50;;;;;;;19.05;8.57;;;;;;;6.37;100.00;101684.47;5068682;28;20031;-67
2023/03/04 10:47:15;;;;;;;14.70;7.05;;;;;;;6.44;100.00;101673.31;5096804;28;20024;-66
2023/03/04 10:49:52;;;;;;;17.80;8.02;;;;;;;6.26;100.00;101677.00;5091898;28;20024;-67
2023/03/04 10:52:27;;;;;;;17.45;7.70;;;;;;;6.01;100.00;101674.41;5081100;28;20035;-66
2023/03/04 10:54:53;;;;;;;17.92;7.13;;;;;;;6.06;100.00;101665.44;5097600;28;20058;-67
2023/03/04 10:57:32;;;;;;;20.17;6.70;;;;;;;5.93;100.00;101666.44;5101291;28;20024;-66
2023/03/04 10:59:58;;;;;;;14.88;6.57;;;;;;;5.85;100.00;101666.78;5081475;28;20032;-66
2023/03/04 11:02:28;;;;;;;18.65;6.85;;;;;;;5.71;100.00;101660.63;5081218;28;20039;-66